createdAt,value
2023-03-29T00:01:34.794Z,17.00
2023-03-29T00:04:04.320Z,16.08
2023-03-29T00:06:33.602Z,16.05
2023-03-29T00:09:01.957Z,17.00
2023-03-29T00:11:28.646Z,16.48
2023-03-29T00:13:55.386Z,16.90
2023-03-29T00:16:22.443Z,17.13
2023-03-29T00:18:49.005Z,15.85
2023-03-29T00:21:15.447Z,16.75
2023-03-29T00:23:41.897Z,15.93
2023-03-29T00:26:08.637Z,17.02
2023-03-29T00:28:35.455Z,16.67
2023-03-29T00:31:10.696Z,16.40
2023-03-29T00:33:37.526Z,15.80
2023-03-29T00:36:06.032Z,15.77
2023-03-29T00:38:33.238Z,15.88
2023-03-29T00:41:00.345Z,15.80
2023-03-29T00:43:27.111Z,15.60
2023-03-29T00:45:54.104Z,15.38
2023-03-29T00:48:28.971Z,16.52
2023-03-29T00:51:10.160Z,16.73
2023-03-29T00:53:42.680Z,15.43
2023-03-29T00:56:25.564Z,15.32
2023-03-29T00:58:57.250Z,15.20
2023-03-29T01:01:42.024Z,15.45
2023-03-29T01:04:18.211Z,14.02
2023-03-29T01:07:02.969Z,14.57
2023-03-29T01:09:32.669Z,14.18
2023-03-29T01:12:02.765Z,14.85
2023-03-29T01:14:34.544Z,14.55
2023-03-29T01:17:01.200Z,15.50
2023-03-29T01:19:33.042Z,13.95
2023-03-29T01:22:05.892Z,13.45
2023-03-29T01:24:58.361Z,13.98
2023-03-29T01:27:50.031Z,14.00
2023-03-29T01:30:25.504Z,14.00
2023-03-29T01:33:21.062Z,14.15
2023-03-29T01:36:08.138Z,14.05
2023-03-29T01:38:40.246Z,14.65
2023-03-29T01:41:07.851Z,13.95
2023-03-29T01:43:58.998Z,14.18
2023-03-29T01:46:48.213Z,13.25
2023-03-29T01:49:20.079Z,13.70
2023-03-29T01:51:58.489Z,13.98
2023-03-29T01:54:33.306Z,13.75
2023-03-29T01:57:03.780Z,13.77
2023-03-29T01:59:35.918Z,14.15
2023-03-29T02:02:11.426Z,13.25
2023-03-29T02:04:45.858Z,13.57
2023-03-29T02:07:13.072Z,14.52
2023-03-29T02:09:40.267Z,14.23
2023-03-29T02:12:09.176Z,13.70
2023-03-29T02:14:35.687Z,15.02
2023-03-29T02:17:19.976Z,14.73
2023-03-29T02:19:50.183Z,12.57
2023-03-29T02:24:50.109Z,14.07
2023-03-29T02:27:16.650Z,12.98
2023-03-29T02:29:43.180Z,13.20
2023-03-29T02:32:19.519Z,13.65
2023-03-29T02:35:13.299Z,13.38
2023-03-29T02:37:45.310Z,13.38
2023-03-29T02:40:14.417Z,13.07
2023-03-29T02:42:43.772Z,14.40
2023-03-29T02:45:14.530Z,13.50
2023-03-29T02:47:50.004Z,12.27
2023-03-29T02:50:16.720Z,12.85
2023-03-29T02:52:53.006Z,12.32
2023-03-29T02:55:23.542Z,12.40
2023-03-29T02:57:50.362Z,12.93
2023-03-29T03:00:18.825Z,12.88
2023-03-29T03:02:46.763Z,12.80
2023-03-29T03:05:13.752Z,12.55
2023-03-29T03:07:40.652Z,12.90
2023-03-29T03:10:10.010Z,13.10
2023-03-29T03:12:37.616Z,13.43
2023-03-29T03:15:05.895Z,12.40
2023-03-29T03:17:33.469Z,12.77
2023-03-29T03:20:00.593Z,12.00
2023-03-29T03:22:27.133Z,13.65
2023-03-29T03:24:53.741Z,12.77
2023-03-29T03:27:20.521Z,12.55
2023-03-29T03:29:47.439Z,13.07
2023-03-29T03:32:13.978Z,13.05
2023-03-29T03:34:40.458Z,13.00
2023-03-29T03:37:07.057Z,12.65
2023-03-29T03:39:33.596Z,13.68
2023-03-29T03:42:00.269Z,13.13
2023-03-29T03:44:26.750Z,13.30
2023-03-29T03:46:53.258Z,13.15
2023-03-29T03:49:21.065Z,11.55
2023-03-29T03:51:47.700Z,12.63
2023-03-29T03:54:14.172Z,12.25
2023-03-29T03:56:40.666Z,11.85
2023-03-29T03:59:07.232Z,12.65
2023-03-29T04:01:35.301Z,12.55
2023-03-29T04:04:02.201Z,12.85
2023-03-29T04:06:30.541Z,11.43
2023-03-29T04:08:56.990Z,12.65
2023-03-29T04:11:23.787Z,11.77
2023-03-29T04:13:50.312Z,12.38
2023-03-29T04:16:16.798Z,13.10
2023-03-29T04:18:44.111Z,12.38
2023-03-29T04:21:10.831Z,12.90
2023-03-29T04:23:40.156Z,15.38
2023-03-29T04:26:07.739Z,13.33
2023-03-29T04:28:34.634Z,14.38
2023-03-29T04:31:03.941Z,14.35
2023-03-29T04:33:30.823Z,14.10
2023-03-29T04:35:57.388Z,13.80
2023-03-29T04:38:23.871Z,14.25
2023-03-29T04:40:50.947Z,14.45
2023-03-29T04:43:17.642Z,14.07
2023-03-29T04:45:50.120Z,15.20
2023-03-29T04:48:17.089Z,14.35
2023-03-29T04:50:46.750Z,15.63
2023-03-29T04:53:13.399Z,16.15
2023-03-29T04:55:39.958Z,16.02
2023-03-29T04:58:06.679Z,16.52
2023-03-29T05:00:33.257Z,16.92
2023-03-29T05:02:59.871Z,16.23
2023-03-29T05:05:26.992Z,16.73
2023-03-29T05:07:54.866Z,16.55
2023-03-29T05:10:21.562Z,16.60
2023-03-29T05:12:50.542Z,17.10
2023-03-29T05:15:17.343Z,17.13
2023-03-29T05:17:43.902Z,19.58
2023-03-29T05:20:11.554Z,19.40
2023-03-29T05:22:38.526Z,19.02
2023-03-29T05:25:05.754Z,19.42
2023-03-29T05:27:33.562Z,17.50
2023-03-29T05:30:01.705Z,19.48
2023-03-29T05:32:28.652Z,18.73
2023-03-29T05:34:55.206Z,19.20
2023-03-29T05:37:21.685Z,20.10
2023-03-29T05:39:49.954Z,19.83
2023-03-29T05:42:19.145Z,21.45
2023-03-29T05:44:45.583Z,20.55
2023-03-29T05:47:12.163Z,21.05
2023-03-29T05:49:39.195Z,21.33
2023-03-29T05:52:06.644Z,19.90
2023-03-29T05:54:33.065Z,20.30
2023-03-29T05:56:59.517Z,20.90
2023-03-29T05:59:28.423Z,20.10
2023-03-29T06:01:54.910Z,20.70
2023-03-29T06:04:21.559Z,21.30
2023-03-29T06:06:48.605Z,20.05
2023-03-29T06:09:15.569Z,19.25
2023-03-29T06:11:42.045Z,23.60
2023-03-29T06:14:08.781Z,22.08
2023-03-29T06:16:36.328Z,19.52
2023-03-29T06:19:02.869Z,21.20
2023-03-29T06:21:30.269Z,19.90
2023-03-29T06:23:56.713Z,20.00
2023-03-29T06:26:23.945Z,20.20
2023-03-29T06:28:52.252Z,20.77
2023-03-29T06:31:19.917Z,18.52
2023-03-29T06:33:46.893Z,19.55
2023-03-29T06:36:16.110Z,19.33
2023-03-29T06:38:44.283Z,19.58
2023-03-29T06:41:11.172Z,19.05
2023-03-29T06:43:38.182Z,19.08
2023-03-29T06:46:08.781Z,19.85
2023-03-29T06:48:35.306Z,19.33
2023-03-29T06:51:01.942Z,20.52
2023-03-29T06:53:28.597Z,18.27
2023-03-29T06:55:55.103Z,19.67
2023-03-29T06:58:21.859Z,18.40
2023-03-29T07:00:48.401Z,17.95
2023-03-29T07:03:20.418Z,18.52
2023-03-29T07:05:47.838Z,16.90
2023-03-29T07:08:16.666Z,18.55
2023-03-29T07:10:50.501Z,18.65
2023-03-29T07:13:17.267Z,18.25
2023-03-29T07:15:44.971Z,17.15
2023-03-29T07:18:12.779Z,17.38
2023-03-29T07:20:40.436Z,18.35
2023-03-29T07:23:08.150Z,16.92
2023-03-29T07:25:34.793Z,15.98
2023-03-29T07:28:02.743Z,17.30
2023-03-29T07:30:32.381Z,16.90
2023-03-29T07:33:00.539Z,17.75
2023-03-29T07:35:28.003Z,16.80
2023-03-29T07:37:57.787Z,15.88
2023-03-29T07:40:24.845Z,16.85
2023-03-29T07:42:53.953Z,15.48
2023-03-29T07:45:26.750Z,16.23
2023-03-29T07:47:57.533Z,15.30
2023-03-29T07:50:24.699Z,15.15
2023-03-29T07:52:51.354Z,15.93
2023-03-29T07:55:18.467Z,15.57
2023-03-29T07:57:45.254Z,15.50
2023-03-29T08:00:16.263Z,15.65
2023-03-29T08:02:44.447Z,16.05
2023-03-29T08:05:12.900Z,15.90
2023-03-29T08:07:43.350Z,16.50
2023-03-29T08:10:13.500Z,14.40
2023-03-29T08:12:40.239Z,15.90
2023-03-29T08:15:07.314Z,15.40
2023-03-29T08:17:34.971Z,15.23
2023-03-29T08:20:02.180Z,16.48
2023-03-29T08:22:28.636Z,15.68
2023-03-29T08:24:55.334Z,16.85
2023-03-29T08:27:22.125Z,15.00
2023-03-29T08:29:48.619Z,16.08
2023-03-29T08:32:15.282Z,15.68
2023-03-29T08:34:41.961Z,16.27
2023-03-29T08:37:09.780Z,16.55
2023-03-29T08:39:36.505Z,15.65
2023-03-29T08:42:28.782Z,16.02
2023-03-29T08:45:19.905Z,16.05
2023-03-29T08:48:08.382Z,17.23
2023-03-29T08:50:48.093Z,15.98
2023-03-29T08:53:27.657Z,15.80
2023-03-29T08:55:57.101Z,15.50
2023-03-29T08:58:29.205Z,15.75
2023-03-29T09:00:58.509Z,15.77
2023-03-29T09:03:31.858Z,15.40
2023-03-29T09:06:10.838Z,16.00
2023-03-29T09:08:44.129Z,15.68
2023-03-29T09:11:21.699Z,15.98
2023-03-29T09:14:09.126Z,15.60
2023-03-29T09:16:45.005Z,15.60
2023-03-29T09:19:20.894Z,14.82
2023-03-29T09:21:51.950Z,15.15
2023-03-29T09:24:44.290Z,15.43
2023-03-29T09:27:27.911Z,15.70
2023-03-29T09:30:13.589Z,15.45
2023-03-29T09:33:25.198Z,15.10
2023-03-29T09:36:12.181Z,15.45
2023-03-29T09:38:43.342Z,15.38
2023-03-29T09:41:18.991Z,14.95
2023-03-29T09:43:47.179Z,15.25
2023-03-29T09:46:28.214Z,14.98
2023-03-29T09:48:56.708Z,15.52
2023-03-29T09:51:28.084Z,17.13
2023-03-29T09:53:56.578Z,17.50
2023-03-29T09:56:23.662Z,17.55
2023-03-29T09:58:50.215Z,17.50
2023-03-29T10:01:20.252Z,17.02
2023-03-29T10:03:54.346Z,16.58
2023-03-29T10:06:24.053Z,17.80
2023-03-29T10:08:57.910Z,16.63
2023-03-29T10:11:33.292Z,16.98
2023-03-29T10:14:12.593Z,16.55
2023-03-29T10:16:41.846Z,16.00
2023-03-29T10:19:23.261Z,15.98
2023-03-29T10:21:55.646Z,15.90
2023-03-29T10:24:24.040Z,16.25
2023-03-29T10:26:57.506Z,17.00
2023-03-29T10:29:26.001Z,16.83
2023-03-29T10:31:53.127Z,17.33
2023-03-29T10:34:25.248Z,16.75
2023-03-29T10:36:58.878Z,16.92
2023-03-29T10:39:29.569Z,16.40
2023-03-29T10:41:56.403Z,16.85
2023-03-29T10:44:33.324Z,16.83
2023-03-29T10:47:17.592Z,16.67
2023-03-29T10:49:50.864Z,17.42
2023-03-29T10:52:20.292Z,17.55
2023-03-29T10:54:48.076Z,16.58
2023-03-29T10:57:22.798Z,16.42
2023-03-29T10:59:55.391Z,16.40
2023-03-29T11:02:33.765Z,16.40
2023-03-29T11:05:31.341Z,17.67
2023-03-29T11:08:10.040Z,18.95
2023-03-29T11:10:46.121Z,18.83
2023-03-29T11:13:59.839Z,18.00
2023-03-29T11:16:39.256Z,19.08
2023-03-29T11:19:05.776Z,19.25
2023-03-29T11:21:43.398Z,17.70
2023-03-29T11:24:28.067Z,18.50
2023-03-29T11:27:09.732Z,18.58
2023-03-29T11:29:58.639Z,18.58
2023-03-29T11:32:35.714Z,17.95
2023-03-29T11:35:32.210Z,19.48
2023-03-29T11:38:26.855Z,17.92
2023-03-29T11:41:10.946Z,18.65
2023-03-29T11:43:48.930Z,17.50
2023-03-29T11:46:27.309Z,17.95
2023-03-29T11:49:01.762Z,19.15
2023-03-29T11:51:59.554Z,18.00
2023-03-29T11:54:34.377Z,19.33
2023-03-29T11:57:11.648Z,19.70
2023-03-29T11:59:52.113Z,19.33
2023-03-29T12:02:35.982Z,19.88
2023-03-29T12:05:13.628Z,19.35
2023-03-29T12:07:48.651Z,19.98
2023-03-29T12:10:21.104Z,19.25
2023-03-29T12:13:17.049Z,19.77
2023-03-29T12:16:10.671Z,20.42
2023-03-29T12:18:41.976Z,19.48
2023-03-29T12:21:20.043Z,19.80
2023-03-29T12:23:48.047Z,20.02
2023-03-29T12:26:36.551Z,19.90
2023-03-29T12:29:15.239Z,19.85
2023-03-29T12:31:59.349Z,19.88
2023-03-29T12:34:30.991Z,19.92
2023-03-29T12:37:24.735Z,19.63
2023-03-29T12:39:51.993Z,19.90
2023-03-29T12:42:23.920Z,19.48
2023-03-29T12:45:00.583Z,20.30
2023-03-29T12:47:33.777Z,19.65
2023-03-29T12:50:03.426Z,19.20
2023-03-29T12:52:36.908Z,19.52
2023-03-29T12:55:30.796Z,19.27
2023-03-29T12:58:03.931Z,19.10
2023-03-29T13:00:44.529Z,19.25
2023-03-29T13:03:20.304Z,18.10
2023-03-29T13:05:47.170Z,19.83
2023-03-29T13:08:27.511Z,18.33
2023-03-29T13:13:28.023Z,18.55
2023-03-29T13:15:54.777Z,19.20
2023-03-29T13:18:32.102Z,18.75
2023-03-29T13:21:07.860Z,18.33
2023-03-29T13:23:49.597Z,19.23
2023-03-29T13:27:02.573Z,17.95
2023-03-29T13:29:53.384Z,18.60
2023-03-29T13:32:27.193Z,18.42
2023-03-29T13:35:07.124Z,18.75
2023-03-29T13:37:57.981Z,19.30
2023-03-29T13:40:30.477Z,19.00
2023-03-29T13:43:19.738Z,17.63
2023-03-29T13:45:57.966Z,18.83
2023-03-29T13:48:37.851Z,18.58
2023-03-29T13:51:13.009Z,17.77
2023-03-29T13:54:10.649Z,19.38
2023-03-29T13:56:55.319Z,18.83
2023-03-29T13:59:35.572Z,17.90
2023-03-29T14:04:46.757Z,17.77
2023-03-29T14:07:20.695Z,18.60
2023-03-29T14:09:53.141Z,18.70
2023-03-29T14:12:20.690Z,17.85
2023-03-29T14:14:58.156Z,18.10
2023-03-29T14:17:25.692Z,18.88
2023-03-29T14:19:58.722Z,18.52
2023-03-29T14:22:31.213Z,18.20
2023-03-29T14:25:02.621Z,18.52
2023-03-29T14:27:31.749Z,17.80
2023-03-29T14:29:58.273Z,19.13
2023-03-29T14:32:30.891Z,17.95
2023-03-29T14:34:57.919Z,18.90
2023-03-29T14:37:28.931Z,17.95
2023-03-29T14:39:56.667Z,18.65
2023-03-29T14:42:28.945Z,18.00
2023-03-29T14:45:04.143Z,18.30
2023-03-29T14:47:33.159Z,17.55
2023-03-29T14:50:01.848Z,19.15
2023-03-29T14:52:30.531Z,17.50
2023-03-29T14:55:01.949Z,19.15
2023-03-29T14:57:35.539Z,18.65
2023-03-29T15:00:16.815Z,18.15
2023-03-29T15:02:54.152Z,19.98
2023-03-29T15:05:41.744Z,18.80
2023-03-29T15:08:14.847Z,19.05
2023-03-29T15:10:44.730Z,19.25
2023-03-29T15:15:42.981Z,18.45
2023-03-29T15:18:14.868Z,19.55
2023-03-29T15:20:42.442Z,19.40
2023-03-29T15:23:14.670Z,19.13
2023-03-29T15:25:51.816Z,18.60
2023-03-29T15:28:32.716Z,19.85
2023-03-29T15:31:20.149Z,19.75
2023-03-29T15:33:46.849Z,21.45
2023-03-29T15:36:14.596Z,19.90
2023-03-29T15:38:44.559Z,21.23
2023-03-29T15:41:16.124Z,19.50
2023-03-29T15:43:43.180Z,19.98
2023-03-29T15:46:16.644Z,20.17
2023-03-29T15:48:43.444Z,18.58
2023-03-29T15:51:13.368Z,19.35
2023-03-29T15:53:40.353Z,21.42
2023-03-29T15:56:11.548Z,20.40
2023-03-29T15:58:38.640Z,20.02
2023-03-29T16:01:34.683Z,21.20
2023-03-29T16:04:03.183Z,21.30
2023-03-29T16:06:29.775Z,21.00
2023-03-29T16:08:57.359Z,22.75
2023-03-29T16:11:24.121Z,21.30
2023-03-29T16:13:51.439Z,20.75
2023-03-29T16:16:18.083Z,20.13
2023-03-29T16:18:44.661Z,21.67
2023-03-29T16:21:16.033Z,28.30
2023-03-29T16:23:42.963Z,21.75
2023-03-29T16:26:12.512Z,21.20
2023-03-29T16:28:39.209Z,23.58
2023-03-29T16:31:06.093Z,21.33
2023-03-29T16:33:32.963Z,53.47
2023-03-29T16:35:59.487Z,24.17
2023-03-29T16:38:25.909Z,21.83
2023-03-29T16:40:52.587Z,20.92
2023-03-29T16:43:19.142Z,22.88
2023-03-29T16:45:45.779Z,20.67
2023-03-29T16:48:14.093Z,22.90
2023-03-29T16:50:40.531Z,22.05
2023-03-29T16:53:07.173Z,21.90
2023-03-29T16:55:34.026Z,20.67
2023-03-29T16:58:00.485Z,22.40
2023-03-29T17:00:27.010Z,20.48
2023-03-29T17:02:53.494Z,22.77
2023-03-29T17:05:19.932Z,22.67
2023-03-29T17:07:46.927Z,23.02
2023-03-29T17:10:13.857Z,23.50
2023-03-29T17:12:40.756Z,22.60
2023-03-29T17:15:08.843Z,22.20
2023-03-29T17:17:35.625Z,22.60
2023-03-29T17:20:02.102Z,21.90
2023-03-29T17:22:28.541Z,20.85
2023-03-29T17:24:57.714Z,22.55
2023-03-29T17:27:24.116Z,20.60
2023-03-29T17:29:50.864Z,22.05
2023-03-29T17:32:17.314Z,24.05
2023-03-29T17:34:43.738Z,23.40
2023-03-29T17:37:10.153Z,23.45
2023-03-29T17:39:37.880Z,22.70
2023-03-29T17:42:05.101Z,21.67
2023-03-29T17:44:33.229Z,22.13
2023-03-29T17:47:00.519Z,22.77
2023-03-29T17:49:27.021Z,22.83
2023-03-29T17:51:53.520Z,24.23
2023-03-29T17:54:19.958Z,21.42
2023-03-29T17:56:46.413Z,21.27
2023-03-29T17:59:16.260Z,22.88
2023-03-29T18:01:43.170Z,21.52
2023-03-29T18:04:09.912Z,24.42
2023-03-29T18:06:36.434Z,22.20
2023-03-29T18:09:03.190Z,21.85
2023-03-29T18:11:29.747Z,23.35
2023-03-29T18:13:59.919Z,22.70
2023-03-29T18:16:26.671Z,25.33
2023-03-29T18:18:53.269Z,30.27
2023-03-29T18:21:19.970Z,34.58
2023-03-29T18:23:48.186Z,28.48
2023-03-29T18:26:18.138Z,25.85
2023-03-29T18:28:48.478Z,22.77
2023-03-29T18:31:16.041Z,22.52
2023-03-29T18:33:43.027Z,26.63
2023-03-29T18:36:13.226Z,26.92
2023-03-29T18:38:40.688Z,27.48
2023-03-29T18:41:08.580Z,24.65
2023-03-29T18:43:36.934Z,23.00
2023-03-29T18:46:03.554Z,23.63
2023-03-29T18:48:31.039Z,23.77
2023-03-29T18:50:58.293Z,23.70
2023-03-29T18:53:25.018Z,22.77
2023-03-29T18:55:51.510Z,23.75
2023-03-29T18:58:20.251Z,22.98
2023-03-29T19:00:46.838Z,24.10
2023-03-29T19:03:13.501Z,24.13
2023-03-29T19:05:40.161Z,24.42
2023-03-29T19:08:08.461Z,24.42
2023-03-29T19:10:36.656Z,24.90
2023-03-29T19:13:04.136Z,25.02
2023-03-29T19:15:31.683Z,26.23
2023-03-29T19:17:58.246Z,25.52
2023-03-29T19:20:25.564Z,25.23
2023-03-29T19:22:53.717Z,24.60
2023-03-29T19:25:20.646Z,25.60
2023-03-29T19:27:47.739Z,24.85
2023-03-29T19:30:15.143Z,24.63
2023-03-29T19:32:41.942Z,25.45
2023-03-29T19:35:09.620Z,25.85
2023-03-29T19:37:36.486Z,28.00
2023-03-29T19:40:06.371Z,27.77
2023-03-29T19:42:38.606Z,26.60
2023-03-29T19:45:07.604Z,26.42
2023-03-29T19:47:34.739Z,25.65
2023-03-29T19:50:04.014Z,24.85
2023-03-29T19:52:30.694Z,27.17
2023-03-29T19:54:58.572Z,25.02
2023-03-29T19:57:25.487Z,27.63
2023-03-29T19:59:53.876Z,26.90
2023-03-29T20:02:20.502Z,28.13
2023-03-29T20:04:50.225Z,26.67
2023-03-29T20:07:16.805Z,29.27
2023-03-29T20:09:45.221Z,28.80
2023-03-29T20:12:11.921Z,27.98
2023-03-29T20:14:40.130Z,29.48
2023-03-29T20:17:07.405Z,28.55
2023-03-29T20:19:36.369Z,28.90
2023-03-29T20:22:05.991Z,29.80
2023-03-29T20:24:34.590Z,30.88
2023-03-29T20:27:01.720Z,29.60
2023-03-29T20:29:28.246Z,31.35
2023-03-29T20:31:54.854Z,32.05
2023-03-29T20:34:22.141Z,30.63
2023-03-29T20:36:48.894Z,31.85
2023-03-29T20:39:18.653Z,32.15
2023-03-29T20:41:47.932Z,34.60
2023-03-29T20:44:18.989Z,32.60
2023-03-29T20:46:54.285Z,33.33
2023-03-29T20:49:26.233Z,32.92
2023-03-29T20:51:59.000Z,33.28
2023-03-29T20:54:26.446Z,34.58
2023-03-29T20:56:55.103Z,32.63
2023-03-29T20:59:22.925Z,33.75
2023-03-29T21:01:50.155Z,32.92
2023-03-29T21:04:17.569Z,33.45
2023-03-29T21:06:45.643Z,33.03
2023-03-29T21:09:13.614Z,32.58
2023-03-29T21:11:40.178Z,33.20
2023-03-29T21:14:06.753Z,33.97
2023-03-29T21:16:33.463Z,32.45
2023-03-29T21:18:59.978Z,33.78
2023-03-29T21:21:26.518Z,33.17
2023-03-29T21:23:53.007Z,35.63
2023-03-29T21:26:19.590Z,36.20
2023-03-29T21:28:48.418Z,36.35
2023-03-29T21:31:15.240Z,38.65
2023-03-29T21:33:41.718Z,39.83
2023-03-29T21:36:08.312Z,41.25
2023-03-29T21:38:34.889Z,40.28
2023-03-29T21:41:03.095Z,41.78
2023-03-29T21:43:29.776Z,41.80
2023-03-29T21:45:57.830Z,43.33
2023-03-29T21:48:24.312Z,44.90
2023-03-29T21:50:51.023Z,46.10
2023-03-29T21:53:18.280Z,44.72
2023-03-29T21:55:44.802Z,45.10
2023-03-29T21:58:11.324Z,45.95
2023-03-29T22:00:38.034Z,46.80
2023-03-29T22:03:04.616Z,45.17
2023-03-29T22:05:31.172Z,43.70
2023-03-29T22:07:58.629Z,47.28
2023-03-29T22:10:25.389Z,46.03
2023-03-29T22:12:52.544Z,44.80
2023-03-29T22:15:21.758Z,44.45
2023-03-29T22:17:48.900Z,44.28
2023-03-29T22:20:15.477Z,45.58
2023-03-29T22:22:47.100Z,47.88
2023-03-29T22:25:13.589Z,45.45
2023-03-29T22:27:40.264Z,49.10
2023-03-29T22:30:08.469Z,48.75
2023-03-29T22:32:34.906Z,45.65
2023-03-29T22:35:01.643Z,45.95
2023-03-29T22:37:28.140Z,45.17
2023-03-29T22:39:54.568Z,43.28
2023-03-29T22:42:20.980Z,42.85
2023-03-29T22:44:47.537Z,44.95
2023-03-29T22:47:14.030Z,41.78
2023-03-29T22:49:40.919Z,42.40
2023-03-29T22:52:07.660Z,42.72
2023-03-29T22:54:34.124Z,41.38
2023-03-29T22:57:00.795Z,40.42
2023-03-29T22:59:27.495Z,43.67
2023-03-29T23:01:54.300Z,43.00
2023-03-29T23:04:20.872Z,41.33
2023-03-29T23:06:47.336Z,41.40
2023-03-29T23:09:15.964Z,42.97
2023-03-29T23:11:43.051Z,42.50
2023-03-29T23:14:09.629Z,41.58
2023-03-29T23:16:36.991Z,40.15
2023-03-29T23:19:03.437Z,39.72
2023-03-29T23:21:29.928Z,40.78
2023-03-29T23:23:56.378Z,41.47
2023-03-29T23:26:23.142Z,39.67
2023-03-29T23:28:51.489Z,39.20
2023-03-29T23:31:21.147Z,39.28
2023-03-29T23:33:47.671Z,37.67
2023-03-29T23:36:17.046Z,37.85
2023-03-29T23:38:45.417Z,38.53
2023-03-29T23:41:13.326Z,38.28
2023-03-29T23:43:42.505Z,42.00
2023-03-29T23:46:12.040Z,41.03
2023-03-29T23:48:39.177Z,39.83
2023-03-29T23:51:08.032Z,38.25
2023-03-29T23:53:35.005Z,39.20
2023-03-29T23:56:04.068Z,37.63
2023-03-29T23:58:36.833Z,39.55
